createdAt,value
2023-01-04T00:00:41.602Z,16.10
2023-01-04T00:03:08.295Z,15.98
2023-01-04T00:05:34.879Z,16.35
2023-01-04T00:08:01.406Z,16.12
2023-01-04T00:10:27.890Z,15.97
2023-01-04T00:12:54.272Z,15.96
2023-01-04T00:15:20.701Z,15.16
2023-01-04T00:17:47.206Z,15.25
2023-01-04T00:20:13.614Z,16.16
2023-01-04T00:22:41.513Z,16.40
2023-01-04T00:25:13.551Z,15.95
2023-01-04T00:27:42.294Z,16.36
2023-01-04T00:30:12.932Z,16.19
2023-01-04T00:32:42.563Z,16.19
2023-01-04T00:35:22.090Z,16.34
2023-01-04T00:38:05.209Z,17.45
2023-01-04T00:40:31.736Z,17.61
2023-01-04T00:42:59.599Z,19.85
2023-01-04T00:45:28.857Z,35.20
2023-01-04T00:47:59.166Z,28.33
2023-01-04T00:51:02.383Z,24.68
2023-01-04T00:53:31.214Z,19.24
2023-01-04T00:55:57.700Z,14.27
2023-01-04T00:58:24.120Z,14.75
2023-01-04T01:00:54.153Z,15.45
2023-01-04T01:03:23.960Z,15.95
2023-01-04T01:05:50.571Z,14.57
2023-01-04T01:08:28.476Z,14.37
2023-01-04T01:10:59.113Z,14.25
2023-01-04T01:13:25.666Z,15.37
2023-01-04T01:15:52.220Z,15.91
2023-01-04T01:18:24.482Z,16.06
2023-01-04T01:20:54.697Z,16.05
2023-01-04T01:23:21.233Z,15.59
2023-01-04T01:25:50.358Z,14.65
2023-01-04T01:28:17.875Z,13.40
2023-01-04T01:30:48.071Z,13.31
2023-01-04T01:33:14.602Z,12.79
2023-01-04T01:35:41.412Z,12.42
2023-01-04T01:38:21.947Z,12.75
2023-01-04T01:40:50.745Z,13.73
2023-01-04T01:43:17.566Z,15.64
2023-01-04T01:45:46.713Z,16.43
2023-01-04T01:48:18.630Z,16.37
2023-01-04T01:50:46.099Z,16.12
2023-01-04T01:53:12.925Z,15.71
2023-01-04T01:55:40.597Z,15.63
2023-01-04T01:58:07.079Z,14.90
2023-01-04T02:00:33.494Z,14.10
2023-01-04T02:03:00.165Z,13.62
2023-01-04T02:05:26.634Z,13.35
2023-01-04T02:07:54.095Z,12.81
2023-01-04T02:10:20.662Z,12.67
2023-01-04T02:12:47.154Z,13.39
2023-01-04T02:15:13.692Z,13.88
2023-01-04T02:17:40.262Z,14.46
2023-01-04T02:20:06.918Z,15.08
2023-01-04T02:22:40.675Z,15.42
2023-01-04T02:25:10.074Z,15.81
2023-01-04T02:27:36.571Z,15.96
2023-01-04T02:30:03.089Z,16.14
2023-01-04T02:32:29.492Z,16.56
2023-01-04T02:35:06.456Z,16.47
2023-01-04T02:37:33.501Z,16.82
2023-01-04T02:40:02.756Z,22.24
2023-01-04T02:42:29.298Z,15.35
2023-01-04T02:44:55.762Z,14.01
2023-01-04T02:47:22.130Z,15.10
2023-01-04T02:49:48.615Z,15.60
2023-01-04T02:52:15.241Z,15.84
2023-01-04T02:54:42.484Z,16.29
2023-01-04T02:57:09.172Z,16.46
2023-01-04T02:59:35.880Z,15.64
2023-01-04T03:02:04.125Z,14.65
2023-01-04T03:04:30.771Z,14.84
2023-01-04T03:06:57.415Z,14.60
2023-01-04T03:09:27.047Z,14.59
2023-01-04T03:11:53.555Z,14.78
2023-01-04T03:14:31.465Z,14.72
2023-01-04T03:16:59.630Z,14.16
2023-01-04T03:22:06.599Z,13.63
2023-01-04T03:24:33.032Z,13.65
2023-01-04T03:27:01.606Z,12.67
2023-01-04T03:29:28.153Z,13.33
2023-01-04T03:31:54.738Z,12.70
2023-01-04T03:34:21.304Z,12.40
2023-01-04T03:36:47.648Z,12.41
2023-01-04T03:39:14.017Z,12.77
2023-01-04T03:41:41.502Z,13.07
2023-01-04T03:44:08.271Z,12.62
2023-01-04T03:46:35.403Z,13.04
2023-01-04T03:49:01.949Z,12.88
2023-01-04T03:51:28.361Z,11.26
2023-01-04T03:53:54.746Z,9.09
2023-01-04T03:56:21.074Z,8.83
2023-01-04T03:58:47.487Z,8.76
2023-01-04T04:01:14.008Z,6.86
2023-01-04T04:06:20.833Z,5.15
2023-01-04T04:08:47.157Z,4.84
2023-01-04T04:11:19.569Z,4.76
2023-01-04T04:13:47.330Z,3.77
2023-01-04T04:16:13.819Z,3.76
2023-01-04T04:18:40.372Z,4.68
2023-01-04T04:21:06.808Z,3.62
2023-01-04T04:23:33.700Z,3.33
2023-01-04T04:26:00.214Z,3.07
2023-01-04T04:28:26.738Z,3.16
2023-01-04T04:30:53.159Z,3.72
2023-01-04T04:33:19.539Z,4.61
2023-01-04T04:35:46.780Z,7.41
2023-01-04T04:38:13.182Z,7.80
2023-01-04T04:40:40.723Z,8.13
2023-01-04T04:43:07.683Z,7.77
2023-01-04T04:45:34.254Z,7.84
2023-01-04T04:48:03.761Z,9.52
2023-01-04T04:50:30.284Z,7.58
2023-01-04T04:52:56.800Z,7.54
2023-01-04T04:55:23.268Z,6.58
2023-01-04T04:57:49.654Z,6.57
2023-01-04T05:00:16.071Z,7.29
2023-01-04T05:02:51.210Z,7.19
2023-01-04T05:05:20.028Z,6.92
2023-01-04T05:07:47.975Z,6.84
2023-01-04T05:10:28.195Z,7.08
2023-01-04T05:12:57.918Z,7.34
2023-01-04T05:15:24.605Z,6.60
2023-01-04T05:17:51.097Z,7.68
2023-01-04T05:20:17.681Z,7.84
2023-01-04T05:22:44.083Z,7.18
2023-01-04T05:25:10.497Z,7.09
2023-01-04T05:27:36.989Z,6.74
2023-01-04T05:30:03.444Z,6.78
2023-01-04T05:35:14.067Z,6.92
2023-01-04T05:37:40.445Z,7.02
2023-01-04T05:40:06.785Z,6.46
2023-01-04T05:42:33.166Z,5.48
2023-01-04T05:44:59.504Z,4.92
2023-01-04T05:47:25.868Z,3.84
2023-01-04T05:49:52.220Z,4.30
2023-01-04T05:52:18.587Z,5.16
2023-01-04T05:54:44.935Z,4.64
2023-01-04T05:57:11.295Z,4.50
2023-01-04T05:59:41.832Z,4.25
2023-01-04T06:02:08.648Z,3.68
2023-01-04T06:04:35.074Z,3.32
2023-01-04T06:07:01.431Z,2.66
2023-01-04T06:09:27.774Z,2.73
2023-01-04T06:11:54.104Z,2.46
2023-01-04T06:14:20.489Z,2.22
2023-01-04T06:16:46.871Z,2.48
2023-01-04T06:19:13.220Z,2.64
2023-01-04T06:21:39.545Z,3.07
2023-01-04T06:24:05.905Z,2.59
2023-01-04T06:26:32.275Z,2.48
2023-01-04T06:28:58.770Z,2.66
2023-01-04T06:31:25.159Z,2.69
2023-01-04T06:33:51.528Z,2.58
2023-01-04T06:36:20.065Z,2.22
2023-01-04T06:38:46.809Z,2.21
2023-01-04T06:41:13.124Z,2.43
2023-01-04T06:43:39.452Z,2.61
2023-01-04T06:46:05.907Z,3.49
2023-01-04T06:48:32.341Z,2.90
2023-01-04T06:56:23.984Z,2.77
2023-01-04T06:58:50.385Z,2.52
2023-01-04T07:01:16.856Z,2.27
2023-01-04T07:03:43.375Z,2.52
2023-01-04T07:06:09.853Z,2.90
2023-01-04T07:08:36.288Z,3.14
2023-01-04T07:11:03.712Z,2.60
2023-01-04T07:13:31.074Z,2.99
2023-01-04T07:18:37.763Z,3.05
2023-01-04T07:21:04.131Z,2.67
2023-01-04T07:23:38.702Z,2.70
2023-01-04T07:26:05.164Z,3.51
2023-01-04T07:28:31.575Z,4.28
2023-01-04T07:30:58.189Z,4.45
2023-01-04T07:33:24.591Z,4.45
2023-01-04T07:35:50.947Z,4.65
2023-01-04T07:38:17.376Z,4.77
2023-01-04T07:40:56.524Z,4.86
2023-01-04T07:43:28.313Z,6.19
2023-01-04T07:45:56.700Z,5.08
2023-01-04T07:48:23.138Z,4.73
2023-01-04T07:50:49.573Z,4.50
2023-01-04T07:53:17.460Z,4.07
2023-01-04T07:55:44.563Z,4.19
2023-01-04T07:58:11.026Z,5.96
2023-01-04T08:00:37.565Z,4.89
2023-01-04T08:03:04.155Z,4.86
2023-01-04T08:05:30.616Z,5.34
2023-01-04T08:07:57.149Z,5.65
2023-01-04T08:10:23.536Z,5.02
2023-01-04T08:12:49.939Z,5.30
2023-01-04T08:15:16.372Z,4.98
2023-01-04T08:17:42.841Z,5.12
2023-01-04T08:20:09.200Z,5.31
2023-01-04T08:22:36.389Z,4.83
2023-01-04T08:25:02.754Z,4.68
2023-01-04T08:27:31.008Z,4.34
2023-01-04T08:29:57.399Z,4.28
2023-01-04T08:32:23.862Z,4.39
2023-01-04T08:34:50.430Z,4.28
2023-01-04T08:37:16.938Z,4.78
2023-01-04T08:39:48.685Z,4.85
2023-01-04T08:42:24.737Z,4.85
2023-01-04T08:44:59.110Z,4.65
2023-01-04T08:47:27.196Z,4.65
2023-01-04T08:49:53.641Z,4.49
2023-01-04T08:52:22.981Z,4.78
2023-01-04T08:57:29.719Z,4.35
2023-01-04T08:59:56.140Z,4.64
2023-01-04T09:02:22.674Z,6.13
2023-01-04T09:04:49.277Z,4.85
2023-01-04T09:07:15.911Z,4.11
2023-01-04T09:09:42.330Z,3.62
2023-01-04T09:12:16.160Z,3.90
2023-01-04T09:14:56.116Z,5.41
2023-01-04T09:17:22.752Z,4.20
2023-01-04T09:19:49.523Z,3.30
2023-01-04T09:22:25.841Z,3.64
2023-01-04T09:25:00.212Z,3.89
2023-01-04T09:35:49.827Z,3.21
2023-01-04T09:38:21.134Z,3.35
2023-01-04T09:40:48.792Z,3.08
2023-01-04T09:48:39.470Z,4.95
2023-01-04T09:51:05.977Z,4.85
2023-01-04T09:53:32.524Z,5.24
2023-01-04T09:55:59.039Z,5.32
2023-01-04T09:58:25.481Z,5.22
2023-01-04T10:00:51.928Z,5.52
2023-01-04T10:03:18.518Z,5.72
2023-01-04T10:08:25.455Z,6.16
2023-01-04T10:10:52.752Z,5.56
2023-01-04T10:13:19.249Z,5.68
2023-01-04T10:21:32.766Z,5.72
2023-01-04T10:23:59.767Z,6.07
2023-01-04T10:26:27.329Z,6.17
2023-01-04T10:29:01.351Z,6.42
2023-01-04T10:31:39.411Z,6.62
2023-01-04T10:34:07.950Z,6.13
2023-01-04T10:36:34.474Z,6.55
2023-01-04T10:39:00.929Z,6.40
2023-01-04T10:41:27.367Z,6.59
2023-01-04T10:44:11.672Z,6.23
2023-01-04T10:49:29.418Z,5.99
2023-01-04T10:51:55.965Z,5.97
2023-01-04T10:54:22.468Z,5.74
2023-01-04T10:56:48.922Z,7.01
2023-01-04T10:59:15.332Z,7.51
2023-01-04T11:01:42.008Z,5.10
2023-01-04T11:04:08.732Z,5.50
2023-01-04T11:06:35.229Z,5.57
2023-01-04T11:09:01.559Z,5.67
2023-01-04T11:11:28.028Z,5.50
2023-01-04T11:13:55.441Z,5.46
2023-01-04T11:16:22.029Z,5.73
2023-01-04T11:18:48.576Z,6.36
2023-01-04T11:21:15.833Z,5.33
2023-01-04T11:23:44.354Z,5.37
2023-01-04T11:26:10.824Z,5.58
2023-01-04T11:28:37.336Z,5.22
2023-01-04T11:31:03.828Z,5.21
2023-01-04T11:33:30.398Z,5.28
2023-01-04T11:35:56.915Z,5.33
2023-01-04T11:38:23.434Z,5.53
2023-01-04T11:40:49.998Z,9.79
2023-01-04T11:43:16.533Z,11.05
2023-01-04T11:45:56.201Z,10.03
2023-01-04T11:48:28.016Z,5.95
2023-01-04T11:51:16.926Z,5.84
2023-01-04T11:53:43.790Z,7.88
2023-01-04T11:56:10.291Z,10.57
2023-01-04T11:58:36.695Z,12.05
2023-01-04T12:01:03.180Z,12.37
2023-01-04T12:03:29.857Z,11.76
2023-01-04T12:05:56.380Z,11.90
2023-01-04T12:08:22.833Z,12.41
2023-01-04T12:10:49.331Z,11.96
2023-01-04T12:13:15.923Z,11.85
2023-01-04T12:15:42.287Z,11.52
2023-01-04T12:18:22.663Z,11.27
2023-01-04T12:20:50.588Z,11.52
2023-01-04T12:23:17.052Z,11.60
2023-01-04T12:25:44.127Z,12.53
2023-01-04T12:33:28.189Z,12.09
2023-01-04T12:35:54.797Z,11.55
2023-01-04T12:38:21.255Z,11.59
2023-01-04T12:40:47.694Z,11.37
2023-01-04T12:43:14.252Z,11.40
2023-01-04T12:45:46.695Z,11.26
2023-01-04T12:48:13.806Z,11.14
2023-01-04T12:50:43.763Z,11.24
2023-01-04T12:55:58.625Z,11.19
2023-01-04T13:01:26.769Z,11.14
2023-01-04T13:03:53.716Z,11.50
2023-01-04T13:06:22.879Z,12.66
2023-01-04T13:08:50.624Z,11.84
2023-01-04T13:11:17.037Z,11.41
2023-01-04T13:13:43.532Z,12.01
2023-01-04T13:16:10.045Z,11.16
2023-01-04T13:18:36.530Z,11.35
2023-01-04T13:21:03.052Z,12.63
2023-01-04T13:23:29.543Z,13.35
2023-01-04T13:25:56.045Z,12.25
2023-01-04T13:28:23.732Z,11.06
2023-01-04T13:30:50.251Z,11.41
2023-01-04T13:33:32.041Z,10.83
2023-01-04T13:35:59.184Z,10.97
2023-01-04T13:38:25.856Z,10.97
2023-01-04T13:40:52.405Z,11.15
2023-01-04T13:43:18.888Z,11.07
2023-01-04T13:45:45.416Z,10.70
2023-01-04T13:48:11.850Z,10.86
2023-01-04T13:50:38.327Z,9.90
2023-01-04T13:53:08.084Z,10.49
2023-01-04T13:55:35.049Z,10.84
2023-01-04T13:58:01.554Z,10.69
2023-01-04T14:00:28.100Z,11.97
2023-01-04T14:02:54.563Z,11.42
2023-01-04T14:05:21.121Z,11.09
2023-01-04T14:07:47.552Z,11.27
2023-01-04T14:10:14.032Z,11.12
2023-01-04T14:12:40.708Z,11.46
2023-01-04T14:15:07.081Z,11.33
2023-01-04T14:17:35.890Z,11.42
2023-01-04T14:20:02.547Z,11.56
2023-01-04T14:22:29.041Z,10.70
2023-01-04T14:27:42.063Z,10.38
2023-01-04T14:30:08.487Z,10.75
2023-01-04T14:32:35.003Z,10.86
2023-01-04T14:35:01.488Z,11.55
2023-01-04T14:37:27.974Z,10.88
2023-01-04T14:39:54.344Z,10.33
2023-01-04T14:42:22.767Z,10.19
2023-01-04T14:45:02.224Z,10.69
2023-01-04T14:47:28.813Z,10.70
2023-01-04T14:49:55.239Z,10.64
2023-01-04T14:52:22.491Z,10.77
2023-01-04T14:54:49.033Z,10.28
2023-01-04T14:57:15.579Z,10.43
2023-01-04T14:59:42.061Z,10.30
2023-01-04T15:02:08.654Z,10.95
2023-01-04T15:04:35.200Z,10.38
2023-01-04T15:07:01.654Z,12.50
2023-01-04T15:09:28.077Z,10.79
2023-01-04T15:11:54.439Z,9.85
2023-01-04T15:14:23.749Z,10.16
2023-01-04T15:16:53.890Z,10.57
2023-01-04T15:19:20.416Z,10.63
2023-01-04T15:21:46.964Z,10.17
2023-01-04T15:24:13.628Z,10.37
2023-01-04T15:26:40.207Z,10.05
2023-01-04T15:29:06.818Z,10.08
2023-01-04T15:31:38.843Z,10.06
2023-01-04T15:34:05.823Z,10.64
2023-01-04T15:36:32.356Z,10.25
2023-01-04T15:38:58.871Z,11.51
2023-01-04T15:44:05.695Z,11.46
2023-01-04T15:46:32.274Z,11.05
2023-01-04T15:48:58.837Z,10.24
2023-01-04T15:51:25.430Z,10.21
2023-01-04T15:53:52.413Z,9.96
2023-01-04T15:58:48.734Z,10.26
2023-01-04T16:03:55.486Z,10.16
2023-01-04T16:06:21.953Z,10.25
2023-01-04T16:08:48.437Z,10.37
2023-01-04T16:11:14.957Z,10.38
2023-01-04T16:13:44.188Z,10.64
2023-01-04T16:16:10.968Z,10.76
2023-01-04T16:26:43.611Z,11.19
2023-01-04T16:29:09.947Z,10.60
2023-01-04T16:31:36.330Z,10.63
2023-01-04T16:34:02.724Z,10.61
2023-01-04T16:36:29.159Z,10.99
2023-01-04T16:38:55.564Z,10.90
2023-01-04T16:41:22.129Z,12.30
2023-01-04T16:43:48.629Z,13.77
2023-01-04T16:46:15.158Z,11.52
2023-01-04T16:48:41.612Z,11.27
2023-01-04T16:51:07.997Z,11.25
2023-01-04T16:53:34.389Z,33.24
2023-01-04T16:56:00.796Z,30.86
2023-01-04T16:58:27.401Z,26.65
2023-01-04T17:00:53.863Z,19.31
2023-01-04T17:03:20.462Z,18.21
2023-01-04T17:05:46.871Z,13.04
2023-01-04T17:08:13.312Z,10.94
2023-01-04T17:10:43.327Z,10.69
2023-01-04T17:13:09.867Z,10.82
2023-01-04T17:15:43.443Z,11.28
2023-01-04T17:18:17.899Z,11.51
2023-01-04T17:20:50.423Z,11.38
2023-01-04T17:23:16.903Z,11.69
2023-01-04T17:25:43.354Z,11.55
2023-01-04T17:28:09.853Z,11.35
2023-01-04T17:30:36.331Z,11.72
2023-01-04T17:33:02.784Z,10.70
2023-01-04T17:35:29.180Z,10.49
2023-01-04T17:37:55.667Z,10.55
2023-01-04T17:40:23.654Z,10.68
2023-01-04T17:42:50.268Z,10.74
2023-01-04T17:45:30.046Z,10.21
2023-01-04T17:47:56.581Z,10.59
2023-01-04T17:50:29.830Z,11.23
2023-01-04T17:52:56.282Z,11.08
2023-01-04T17:55:23.764Z,11.83
2023-01-04T17:57:50.175Z,17.46
2023-01-04T18:00:18.270Z,15.42
2023-01-04T18:02:44.781Z,14.05
2023-01-04T18:05:11.310Z,11.97
2023-01-04T18:07:37.713Z,11.89
2023-01-04T18:10:04.168Z,12.42
2023-01-04T18:12:30.667Z,11.91
2023-01-04T18:14:57.088Z,11.09
2023-01-04T18:17:23.560Z,11.02
2023-01-04T18:19:50.106Z,12.23
2023-01-04T18:22:16.500Z,12.13
2023-01-04T18:24:42.937Z,12.20
2023-01-04T18:27:26.253Z,12.35
2023-01-04T18:29:53.302Z,12.56
2023-01-04T18:32:19.727Z,13.71
2023-01-04T18:34:46.205Z,12.90
2023-01-04T18:37:12.571Z,11.39
2023-01-04T18:39:38.940Z,11.89
2023-01-04T18:42:05.390Z,13.09
2023-01-04T18:44:35.597Z,22.62
2023-01-04T18:47:02.928Z,19.20
2023-01-04T18:49:29.415Z,17.77
2023-01-04T18:51:55.880Z,15.27
2023-01-04T18:54:22.329Z,14.59
2023-01-04T18:56:48.703Z,14.76
2023-01-04T18:59:15.131Z,18.69
2023-01-04T19:01:41.702Z,23.48
2023-01-04T19:04:08.211Z,21.45
2023-01-04T19:06:34.582Z,15.42
2023-01-04T19:09:06.260Z,12.85
2023-01-04T19:11:33.262Z,11.38
2023-01-04T19:13:59.812Z,9.02
2023-01-04T19:16:26.211Z,6.52
2023-01-04T19:18:52.591Z,5.88
2023-01-04T19:21:18.978Z,8.33
2023-01-04T19:23:48.484Z,10.29
2023-01-04T19:26:14.866Z,11.89
2023-01-04T19:28:42.318Z,12.67
2023-01-04T19:31:08.810Z,13.16
2023-01-04T19:33:35.262Z,13.01
2023-01-04T19:36:01.639Z,13.02
2023-01-04T19:38:28.203Z,13.63
2023-01-04T19:40:54.567Z,14.15
2023-01-04T19:43:20.914Z,13.49
2023-01-04T19:45:47.340Z,13.62
2023-01-04T19:48:13.977Z,13.82
2023-01-04T19:50:40.428Z,13.51
2023-01-04T19:53:06.831Z,12.78
2023-01-04T19:55:33.239Z,14.01
2023-01-04T19:57:59.628Z,58.42
2023-01-04T20:00:26.006Z,38.56
2023-01-04T20:02:52.451Z,17.67
2023-01-04T20:05:18.952Z,14.82
2023-01-04T20:07:45.360Z,14.95
2023-01-04T20:10:14.475Z,14.19
2023-01-04T20:12:41.139Z,13.71
2023-01-04T20:15:07.559Z,13.10
2023-01-04T20:17:33.958Z,13.55
2023-01-04T20:20:00.372Z,19.83
2023-01-04T20:22:26.834Z,20.82
2023-01-04T20:24:53.363Z,17.20
2023-01-04T20:27:19.808Z,14.02
2023-01-04T20:29:46.176Z,13.07
2023-01-04T20:32:12.873Z,13.03
2023-01-04T20:34:39.291Z,13.33
2023-01-04T20:37:05.743Z,13.64
2023-01-04T20:39:37.705Z,13.56
2023-01-04T20:42:04.154Z,13.88
2023-01-04T20:44:30.626Z,13.80
2023-01-04T20:46:57.091Z,14.55
2023-01-04T20:49:23.714Z,15.47
2023-01-04T20:51:50.180Z,14.69
2023-01-04T20:54:16.617Z,14.35
2023-01-04T20:56:43.148Z,14.25
2023-01-04T20:59:09.724Z,13.92
2023-01-04T21:01:36.194Z,14.73
2023-01-04T21:04:02.652Z,20.26
2023-01-04T21:06:29.068Z,20.35
2023-01-04T21:08:55.543Z,10.37
2023-01-04T21:11:21.994Z,7.48
2023-01-04T21:13:48.479Z,13.42
2023-01-04T21:16:16.393Z,14.30
2023-01-04T21:18:42.782Z,14.70
2023-01-04T21:21:09.268Z,14.37
2023-01-04T21:23:35.625Z,15.08
2023-01-04T21:26:02.005Z,15.53
2023-01-04T21:28:34.332Z,15.27
2023-01-04T21:31:00.731Z,18.68
2023-01-04T21:33:27.236Z,14.97
2023-01-04T21:35:56.648Z,13.60
2023-01-04T21:38:23.099Z,14.37
2023-01-04T21:40:49.570Z,26.71
2023-01-04T21:43:20.517Z,24.55
2023-01-04T21:45:46.920Z,19.87
2023-01-04T21:48:13.292Z,12.80
2023-01-04T21:50:39.678Z,8.65
2023-01-04T21:53:06.156Z,8.74
2023-01-04T21:55:34.793Z,11.23
2023-01-04T21:58:04.682Z,13.17
2023-01-04T22:00:31.098Z,12.99
2023-01-04T22:02:57.604Z,12.61
2023-01-04T22:05:30.035Z,12.82
2023-01-04T22:07:59.282Z,12.63
2023-01-04T22:10:25.713Z,12.97
2023-01-04T22:12:52.111Z,12.89
2023-01-04T22:15:18.659Z,13.41
2023-01-04T22:17:45.030Z,13.47
2023-01-04T22:20:11.382Z,13.74
2023-01-04T22:22:37.756Z,14.38
2023-01-04T22:25:04.197Z,14.04
2023-01-04T22:27:30.586Z,14.51
2023-01-04T22:29:56.985Z,14.35
2023-01-04T22:32:23.368Z,13.86
2023-01-04T22:34:52.882Z,14.12
2023-01-04T22:37:22.521Z,14.00
2023-01-04T22:39:51.996Z,14.03
2023-01-04T22:42:18.440Z,13.71
2023-01-04T22:44:44.856Z,12.95
2023-01-04T22:47:11.456Z,13.04
2023-01-04T22:49:38.108Z,12.41
2023-01-04T22:52:04.520Z,11.61
2023-01-04T22:54:31.041Z,9.32
2023-01-04T22:56:57.398Z,7.92
2023-01-04T22:59:27.710Z,12.04
2023-01-04T23:01:54.587Z,11.76
2023-01-04T23:04:23.971Z,12.46
2023-01-04T23:06:51.920Z,12.40
2023-01-04T23:09:18.330Z,12.77
2023-01-04T23:11:44.744Z,12.29
2023-01-04T23:14:11.109Z,12.27
2023-01-04T23:16:39.848Z,12.33
2023-01-04T23:19:06.451Z,12.11
2023-01-04T23:21:32.814Z,11.55
2023-01-04T23:23:59.234Z,10.99
2023-01-04T23:26:25.589Z,10.94
2023-01-04T23:28:51.950Z,10.47
2023-01-04T23:31:18.376Z,12.29
2023-01-04T23:33:52.125Z,12.81
2023-01-04T23:36:18.663Z,12.66
2023-01-04T23:38:45.038Z,12.56
2023-01-04T23:41:11.741Z,12.90
2023-01-04T23:43:41.244Z,12.84
2023-01-04T23:46:07.669Z,13.42
2023-01-04T23:48:34.587Z,12.44
2023-01-04T23:51:01.012Z,12.63
2023-01-04T23:53:31.854Z,12.92
2023-01-04T23:55:59.595Z,12.18
2023-01-04T23:58:26.016Z,11.54
